sensor_id;sensor_type;location;lat;lon;timestamp;P1;durP1;ratioP1;P2;durP2;ratioP2
7719;SDS011;3902;49.474;8.616;2022-09-01T00:02:03;2.83;;;2.50;;
7719;SDS011;3902;49.474;8.616;2022-09-01T00:04:32;2.60;;;2.40;;
7719;SDS011;3902;49.474;8.616;2022-09-01T00:06:59;2.50;;;2.30;;
7719;SDS011;3902;49.474;8.616;2022-09-01T00:09:25;3.27;;;2.30;;
7719;SDS011;3902;49.474;8.616;2022-09-01T00:11:52;2.37;;;2.17;;
7719;SDS011;3902;49.474;8.616;2022-09-01T00:14:19;2.70;;;2.50;;
7719;SDS011;3902;49.474;8.616;2022-09-01T00:16:48;2.30;;;2.10;;
7719;SDS011;3902;49.474;8.616;2022-09-01T00:19:13;3.37;;;2.40;;
7719;SDS011;3902;49.474;8.616;2022-09-01T00:21:40;2.70;;;2.50;;
7719;SDS011;3902;49.474;8.616;2022-09-01T00:24:08;2.60;;;2.40;;
7719;SDS011;3902;49.474;8.616;2022-09-01T00:26:34;2.37;;;2.07;;
7719;SDS011;3902;49.474;8.616;2022-09-01T00:29:00;6.00;;;2.13;;
7719;SDS011;3902;49.474;8.616;2022-09-01T00:31:26;2.43;;;2.23;;
7719;SDS011;3902;49.474;8.616;2022-09-01T00:33:52;2.60;;;2.40;;
7719;SDS011;3902;49.474;8.616;2022-09-01T00:36:19;2.40;;;2.20;;
7719;SDS011;3902;49.474;8.616;2022-09-01T00:38:45;3.03;;;2.20;;
7719;SDS011;3902;49.474;8.616;2022-09-01T00:41:11;3.07;;;2.77;;
7719;SDS011;3902;49.474;8.616;2022-09-01T00:43:39;2.63;;;2.43;;
7719;SDS011;3902;49.474;8.616;2022-09-01T00:46:11;2.50;;;2.30;;
7719;SDS011;3902;49.474;8.616;2022-09-01T00:48:40;4.33;;;2.87;;
7719;SDS011;3902;49.474;8.616;2022-09-01T00:51:06;3.17;;;2.90;;
7719;SDS011;3902;49.474;8.616;2022-09-01T00:53:34;3.47;;;3.17;;
7719;SDS011;3902;49.474;8.616;2022-09-01T00:56:02;3.53;;;3.20;;
7719;SDS011;3902;49.474;8.616;2022-09-01T00:58:29;3.60;;;3.30;;
7719;SDS011;3902;49.474;8.616;2022-09-01T01:00:55;3.20;;;2.90;;
7719;SDS011;3902;49.474;8.616;2022-09-01T01:03:21;3.40;;;3.10;;
7719;SDS011;3902;49.474;8.616;2022-09-01T01:05:52;3.40;;;3.10;;
7719;SDS011;3902;49.474;8.616;2022-09-01T01:08:23;4.77;;;3.33;;
7719;SDS011;3902;49.474;8.616;2022-09-01T01:10:58;4.00;;;3.60;;
7719;SDS011;3902;49.474;8.616;2022-09-01T01:13:25;3.90;;;3.37;;
7719;SDS011;3902;49.474;8.616;2022-09-01T01:15:52;5.10;;;4.20;;
7719;SDS011;3902;49.474;8.616;2022-09-01T01:18:18;4.43;;;3.80;;
7719;SDS011;3902;49.474;8.616;2022-09-01T01:20:43;4.17;;;3.87;;
7719;SDS011;3902;49.474;8.616;2022-09-01T01:23:30;3.67;;;3.37;;
7719;SDS011;3902;49.474;8.616;2022-09-01T01:26:04;3.87;;;3.30;;
7719;SDS011;3902;49.474;8.616;2022-09-01T01:28:32;3.50;;;3.20;;
7719;SDS011;3902;49.474;8.616;2022-09-01T01:33:34;3.43;;;3.13;;
7719;SDS011;3902;49.474;8.616;2022-09-01T01:36:05;4.43;;;3.63;;
7719;SDS011;3902;49.474;8.616;2022-09-01T01:38:57;3.27;;;2.97;;
7719;SDS011;3902;49.474;8.616;2022-09-01T01:41:30;3.40;;;3.10;;
7719;SDS011;3902;49.474;8.616;2022-09-01T01:43:57;3.77;;;3.20;;
7719;SDS011;3902;49.474;8.616;2022-09-01T01:46:24;3.00;;;2.80;;
7719;SDS011;3902;49.474;8.616;2022-09-01T01:48:50;6.13;;;2.90;;
7719;SDS011;3902;49.474;8.616;2022-09-01T01:51:17;3.40;;;3.10;;
7719;SDS011;3902;49.474;8.616;2022-09-01T01:53:45;3.00;;;2.80;;
7719;SDS011;3902;49.474;8.616;2022-09-01T01:56:11;2.83;;;2.63;;
7719;SDS011;3902;49.474;8.616;2022-09-01T01:58:37;4.30;;;3.10;;
7719;SDS011;3902;49.474;8.616;2022-09-01T02:01:04;3.10;;;2.80;;
7719;SDS011;3902;49.474;8.616;2022-09-01T02:03:32;3.93;;;2.90;;
7719;SDS011;3902;49.474;8.616;2022-09-01T02:06:03;3.20;;;2.90;;
7719;SDS011;3902;49.474;8.616;2022-09-01T02:08:32;3.30;;;3.00;;
7719;SDS011;3902;49.474;8.616;2022-09-01T02:11:00;3.83;;;3.10;;
7719;SDS011;3902;49.474;8.616;2022-09-01T02:13:26;3.40;;;3.10;;
7719;SDS011;3902;49.474;8.616;2022-09-01T02:16:12;3.43;;;3.10;;
7719;SDS011;3902;49.474;8.616;2022-09-01T02:18:39;3.00;;;2.80;;
7719;SDS011;3902;49.474;8.616;2022-09-01T02:21:07;3.47;;;3.10;;
7719;SDS011;3902;49.474;8.616;2022-09-01T02:23:35;3.13;;;2.93;;
7719;SDS011;3902;49.474;8.616;2022-09-01T02:26:02;2.60;;;2.40;;
7719;SDS011;3902;49.474;8.616;2022-09-01T02:28:31;4.63;;;3.30;;
7719;SDS011;3902;49.474;8.616;2022-09-01T02:31:01;3.50;;;3.20;;
7719;SDS011;3902;49.474;8.616;2022-09-01T02:33:28;3.93;;;3.20;;
7719;SDS011;3902;49.474;8.616;2022-09-01T02:35:55;4.13;;;3.70;;
7719;SDS011;3902;49.474;8.616;2022-09-01T02:38:24;3.90;;;3.20;;
7719;SDS011;3902;49.474;8.616;2022-09-01T02:40:51;3.53;;;3.23;;
7719;SDS011;3902;49.474;8.616;2022-09-01T02:43:18;3.10;;;2.80;;
7719;SDS011;3902;49.474;8.616;2022-09-01T02:45:46;3.40;;;3.10;;
7719;SDS011;3902;49.474;8.616;2022-09-01T02:48:16;3.37;;;2.90;;
7719;SDS011;3902;49.474;8.616;2022-09-01T02:50:42;3.07;;;2.80;;
7719;SDS011;3902;49.474;8.616;2022-09-01T02:53:08;3.47;;;2.77;;
7719;SDS011;3902;49.474;8.616;2022-09-01T02:55:36;2.90;;;2.70;;
7719;SDS011;3902;49.474;8.616;2022-09-01T02:58:05;3.50;;;3.23;;
7719;SDS011;3902;49.474;8.616;2022-09-01T03:00:37;3.40;;;3.17;;
7719;SDS011;3902;49.474;8.616;2022-09-01T03:03:04;3.17;;;2.97;;
7719;SDS011;3902;49.474;8.616;2022-09-01T03:05:31;3.00;;;2.70;;
7719;SDS011;3902;49.474;8.616;2022-09-01T03:07:59;3.30;;;3.00;;
7719;SDS011;3902;49.474;8.616;2022-09-01T03:10:28;2.93;;;2.73;;
7719;SDS011;3902;49.474;8.616;2022-09-01T03:13:19;2.90;;;2.70;;
7719;SDS011;3902;49.474;8.616;2022-09-01T03:15:44;3.23;;;2.93;;
7719;SDS011;3902;49.474;8.616;2022-09-01T03:18:11;4.17;;;3.20;;
7719;SDS011;3902;49.474;8.616;2022-09-01T03:20:39;3.30;;;3.00;;
7719;SDS011;3902;49.474;8.616;2022-09-01T03:23:11;3.20;;;3.00;;
7719;SDS011;3902;49.474;8.616;2022-09-01T03:25:40;3.20;;;3.00;;
7719;SDS011;3902;49.474;8.616;2022-09-01T03:28:07;3.40;;;3.10;;
7719;SDS011;3902;49.474;8.616;2022-09-01T03:30:34;3.63;;;3.33;;
7719;SDS011;3902;49.474;8.616;2022-09-01T03:33:04;3.30;;;3.00;;
7719;SDS011;3902;49.474;8.616;2022-09-01T03:35:31;3.63;;;3.33;;
7719;SDS011;3902;49.474;8.616;2022-09-01T03:37:57;3.50;;;2.93;;
7719;SDS011;3902;49.474;8.616;2022-09-01T03:40:25;3.17;;;2.97;;
7719;SDS011;3902;49.474;8.616;2022-09-01T03:42:53;3.10;;;2.80;;
7719;SDS011;3902;49.474;8.616;2022-09-01T03:45:19;3.40;;;3.10;;
7719;SDS011;3902;49.474;8.616;2022-09-01T03:47:45;3.43;;;3.10;;
7719;SDS011;3902;49.474;8.616;2022-09-01T03:50:15;3.10;;;2.90;;
7719;SDS011;3902;49.474;8.616;2022-09-01T03:52:46;3.53;;;3.23;;
7719;SDS011;3902;49.474;8.616;2022-09-01T03:55:18;3.20;;;2.90;;
7719;SDS011;3902;49.474;8.616;2022-09-01T03:57:47;3.03;;;2.70;;
7719;SDS011;3902;49.474;8.616;2022-09-01T04:00:14;3.50;;;3.20;;
7719;SDS011;3902;49.474;8.616;2022-09-01T04:02:45;3.33;;;2.97;;
7719;SDS011;3902;49.474;8.616;2022-09-01T04:05:14;3.67;;;3.33;;
7719;SDS011;3902;49.474;8.616;2022-09-01T04:07:40;3.63;;;3.33;;
7719;SDS011;3902;49.474;8.616;2022-09-01T04:10:09;3.73;;;3.10;;
7719;SDS011;3902;49.474;8.616;2022-09-01T04:12:35;3.17;;;2.97;;
7719;SDS011;3902;49.474;8.616;2022-09-01T04:15:02;3.10;;;2.83;;
7719;SDS011;3902;49.474;8.616;2022-09-01T04:17:29;4.33;;;3.93;;
7719;SDS011;3902;49.474;8.616;2022-09-01T04:20:13;3.60;;;3.30;;
7719;SDS011;3902;49.474;8.616;2022-09-01T04:22:43;4.03;;;3.73;;
7719;SDS011;3902;49.474;8.616;2022-09-01T04:25:11;4.73;;;3.70;;
7719;SDS011;3902;49.474;8.616;2022-09-01T04:27:38;3.60;;;3.30;;
7719;SDS011;3902;49.474;8.616;2022-09-01T04:30:04;3.83;;;3.53;;
7719;SDS011;3902;49.474;8.616;2022-09-01T04:32:34;4.10;;;3.70;;
7719;SDS011;3902;49.474;8.616;2022-09-01T04:35:02;4.03;;;3.63;;
7719;SDS011;3902;49.474;8.616;2022-09-01T04:37:28;4.13;;;3.50;;
7719;SDS011;3902;49.474;8.616;2022-09-01T04:39:55;4.20;;;3.87;;
7719;SDS011;3902;49.474;8.616;2022-09-01T04:42:21;4.00;;;3.70;;
7719;SDS011;3902;49.474;8.616;2022-09-01T04:44:50;4.20;;;3.80;;
7719;SDS011;3902;49.474;8.616;2022-09-01T04:47:17;6.00;;;3.77;;
7719;SDS011;3902;49.474;8.616;2022-09-01T04:49:44;3.97;;;3.40;;
7719;SDS011;3902;49.474;8.616;2022-09-01T04:52:12;5.23;;;3.90;;
7719;SDS011;3902;49.474;8.616;2022-09-01T04:54:38;4.50;;;3.57;;
7719;SDS011;3902;49.474;8.616;2022-09-01T04:57:04;4.20;;;3.53;;
7719;SDS011;3902;49.474;8.616;2022-09-01T04:59:31;4.90;;;3.33;;
7719;SDS011;3902;49.474;8.616;2022-09-01T05:01:58;3.87;;;3.47;;
7719;SDS011;3902;49.474;8.616;2022-09-01T05:04:25;4.33;;;3.93;;
7719;SDS011;3902;49.474;8.616;2022-09-01T05:06:57;4.53;;;3.97;;
7719;SDS011;3902;49.474;8.616;2022-09-01T05:09:26;3.90;;;3.50;;
7719;SDS011;3902;49.474;8.616;2022-09-01T05:11:53;4.20;;;3.90;;
7719;SDS011;3902;49.474;8.616;2022-09-01T05:14:20;6.27;;;4.30;;
7719;SDS011;3902;49.474;8.616;2022-09-01T05:16:47;3.90;;;3.50;;
7719;SDS011;3902;49.474;8.616;2022-09-01T05:19:14;4.00;;;3.70;;
7719;SDS011;3902;49.474;8.616;2022-09-01T05:21:41;4.90;;;4.40;;
7719;SDS011;3902;49.474;8.616;2022-09-01T05:24:09;3.93;;;3.57;;
7719;SDS011;3902;49.474;8.616;2022-09-01T05:26:45;4.00;;;3.60;;
7719;SDS011;3902;49.474;8.616;2022-09-01T05:29:13;4.10;;;3.67;;
7719;SDS011;3902;49.474;8.616;2022-09-01T05:31:40;4.60;;;3.70;;
7719;SDS011;3902;49.474;8.616;2022-09-01T05:34:07;4.10;;;3.80;;
7719;SDS011;3902;49.474;8.616;2022-09-01T05:36:34;3.90;;;3.60;;
7719;SDS011;3902;49.474;8.616;2022-09-01T05:39:00;3.83;;;3.43;;
7719;SDS011;3902;49.474;8.616;2022-09-01T05:41:28;4.00;;;3.70;;
7719;SDS011;3902;49.474;8.616;2022-09-01T05:43:54;4.70;;;4.17;;
7719;SDS011;3902;49.474;8.616;2022-09-01T05:46:21;4.50;;;3.97;;
7719;SDS011;3902;49.474;8.616;2022-09-01T05:48:50;3.73;;;3.43;;
7719;SDS011;3902;49.474;8.616;2022-09-01T05:51:18;4.60;;;3.70;;
7719;SDS011;3902;49.474;8.616;2022-09-01T05:53:46;3.87;;;3.57;;
7719;SDS011;3902;49.474;8.616;2022-09-01T05:56:17;3.97;;;3.60;;
7719;SDS011;3902;49.474;8.616;2022-09-01T05:58:44;3.77;;;3.47;;
7719;SDS011;3902;49.474;8.616;2022-09-01T06:01:30;3.73;;;3.33;;
7719;SDS011;3902;49.474;8.616;2022-09-01T06:03:58;3.93;;;3.50;;
7719;SDS011;3902;49.474;8.616;2022-09-01T06:06:28;3.70;;;3.40;;
7719;SDS011;3902;49.474;8.616;2022-09-01T06:09:02;3.90;;;3.50;;
7719;SDS011;3902;49.474;8.616;2022-09-01T06:11:29;4.37;;;3.97;;
7719;SDS011;3902;49.474;8.616;2022-09-01T06:13:56;4.10;;;3.70;;
7719;SDS011;3902;49.474;8.616;2022-09-01T06:16:23;4.00;;;3.70;;
7719;SDS011;3902;49.474;8.616;2022-09-01T06:18:49;3.60;;;3.30;;
7719;SDS011;3902;49.474;8.616;2022-09-01T06:21:17;4.60;;;3.23;;
7719;SDS011;3902;49.474;8.616;2022-09-01T06:23:44;3.97;;;3.67;;
7719;SDS011;3902;49.474;8.616;2022-09-01T06:26:20;4.03;;;3.70;;
7719;SDS011;3902;49.474;8.616;2022-09-01T06:28:54;3.70;;;3.40;;
7719;SDS011;3902;49.474;8.616;2022-09-01T06:31:21;3.53;;;3.20;;
7719;SDS011;3902;49.474;8.616;2022-09-01T06:33:52;3.53;;;3.23;;
7719;SDS011;3902;49.474;8.616;2022-09-01T06:36:22;3.30;;;3.00;;
7719;SDS011;3902;49.474;8.616;2022-09-01T06:38:51;3.10;;;2.90;;
7719;SDS011;3902;49.474;8.616;2022-09-01T06:41:18;5.40;;;3.60;;
7719;SDS011;3902;49.474;8.616;2022-09-01T06:43:45;3.93;;;3.33;;
7719;SDS011;3902;49.474;8.616;2022-09-01T06:46:13;3.37;;;3.10;;
7719;SDS011;3902;49.474;8.616;2022-09-01T06:48:39;3.57;;;3.27;;
7719;SDS011;3902;49.474;8.616;2022-09-01T06:51:10;3.53;;;3.23;;
7719;SDS011;3902;49.474;8.616;2022-09-01T06:53:44;3.60;;;3.30;;
7719;SDS011;3902;49.474;8.616;2022-09-01T06:56:15;3.80;;;3.00;;
7719;SDS011;3902;49.474;8.616;2022-09-01T06:58:42;3.77;;;3.30;;
7719;SDS011;3902;49.474;8.616;2022-09-01T07:01:12;3.70;;;3.40;;
7719;SDS011;3902;49.474;8.616;2022-09-01T07:03:45;3.43;;;3.13;;
7719;SDS011;3902;49.474;8.616;2022-09-01T07:06:13;3.60;;;3.30;;
7719;SDS011;3902;49.474;8.616;2022-09-01T07:08:39;4.13;;;3.73;;
7719;SDS011;3902;49.474;8.616;2022-09-01T07:11:17;3.30;;;3.00;;
7719;SDS011;3902;49.474;8.616;2022-09-01T07:13:48;3.40;;;3.20;;
7719;SDS011;3902;49.474;8.616;2022-09-01T07:16:18;3.70;;;3.40;;
7719;SDS011;3902;49.474;8.616;2022-09-01T07:18:46;3.10;;;2.80;;
7719;SDS011;3902;49.474;8.616;2022-09-01T07:21:13;3.37;;;3.07;;
7719;SDS011;3902;49.474;8.616;2022-09-01T07:23:38;2.90;;;2.60;;
7719;SDS011;3902;49.474;8.616;2022-09-01T07:26:05;2.70;;;2.50;;
7719;SDS011;3902;49.474;8.616;2022-09-01T07:28:31;6.40;;;2.93;;
7719;SDS011;3902;49.474;8.616;2022-09-01T07:30:56;5.03;;;3.47;;
7719;SDS011;3902;49.474;8.616;2022-09-01T07:33:23;5.67;;;5.03;;
7719;SDS011;3902;49.474;8.616;2022-09-01T07:35:49;5.13;;;4.73;;
7719;SDS011;3902;49.474;8.616;2022-09-01T07:38:20;4.80;;;4.07;;
7719;SDS011;3902;49.474;8.616;2022-09-01T07:40:46;4.50;;;3.50;;
7719;SDS011;3902;49.474;8.616;2022-09-01T07:43:21;3.83;;;3.50;;
7719;SDS011;3902;49.474;8.616;2022-09-01T07:45:50;4.23;;;3.90;;
7719;SDS011;3902;49.474;8.616;2022-09-01T07:48:20;3.40;;;3.10;;
7719;SDS011;3902;49.474;8.616;2022-09-01T07:50:47;3.70;;;3.40;;
7719;SDS011;3902;49.474;8.616;2022-09-01T07:53:16;3.83;;;3.53;;
7719;SDS011;3902;49.474;8.616;2022-09-01T07:56:05;4.03;;;3.73;;
7719;SDS011;3902;49.474;8.616;2022-09-01T07:58:34;3.60;;;3.30;;
7719;SDS011;3902;49.474;8.616;2022-09-01T08:01:05;6.23;;;3.40;;
7719;SDS011;3902;49.474;8.616;2022-09-01T08:03:51;5.33;;;3.97;;
7719;SDS011;3902;49.474;8.616;2022-09-01T08:06:19;5.40;;;4.40;;
7719;SDS011;3902;49.474;8.616;2022-09-01T08:08:48;4.30;;;3.57;;
7719;SDS011;3902;49.474;8.616;2022-09-01T08:11:16;5.63;;;4.67;;
7719;SDS011;3902;49.474;8.616;2022-09-01T08:13:43;4.73;;;4.27;;
7719;SDS011;3902;49.474;8.616;2022-09-01T08:16:10;7.23;;;5.10;;
7719;SDS011;3902;49.474;8.616;2022-09-01T08:18:36;6.10;;;4.97;;
7719;SDS011;3902;49.474;8.616;2022-09-01T08:21:05;5.20;;;4.33;;
7719;SDS011;3902;49.474;8.616;2022-09-01T08:23:35;4.90;;;4.13;;
7719;SDS011;3902;49.474;8.616;2022-09-01T08:26:05;5.03;;;4.53;;
7719;SDS011;3902;49.474;8.616;2022-09-01T08:28:32;4.00;;;3.70;;
7719;SDS011;3902;49.474;8.616;2022-09-01T08:30:59;4.37;;;3.97;;
7719;SDS011;3902;49.474;8.616;2022-09-01T08:33:25;4.50;;;3.67;;
7719;SDS011;3902;49.474;8.616;2022-09-01T08:35:51;4.03;;;3.63;;
7719;SDS011;3902;49.474;8.616;2022-09-01T08:38:17;3.23;;;2.93;;
7719;SDS011;3902;49.474;8.616;2022-09-01T08:40:48;3.67;;;3.37;;
7719;SDS011;3902;49.474;8.616;2022-09-01T08:43:21;3.87;;;3.57;;
7719;SDS011;3902;49.474;8.616;2022-09-01T08:45:56;3.37;;;3.07;;
7719;SDS011;3902;49.474;8.616;2022-09-01T08:48:27;3.50;;;3.20;;
7719;SDS011;3902;49.474;8.616;2022-09-01T08:51:05;3.57;;;3.23;;
7719;SDS011;3902;49.474;8.616;2022-09-01T08:53:44;3.30;;;3.10;;
7719;SDS011;3902;49.474;8.616;2022-09-01T08:56:16;3.23;;;2.93;;
7719;SDS011;3902;49.474;8.616;2022-09-01T08:58:43;3.33;;;3.03;;
7719;SDS011;3902;49.474;8.616;2022-09-01T09:01:21;2.80;;;2.60;;
7719;SDS011;3902;49.474;8.616;2022-09-01T09:07:02;3.60;;;3.33;;
7719;SDS011;3902;49.474;8.616;2022-09-01T09:09:46;2.83;;;2.53;;
7719;SDS011;3902;49.474;8.616;2022-09-01T09:12:34;2.53;;;2.33;;
7719;SDS011;3902;49.474;8.616;2022-09-01T09:18:12;3.33;;;3.13;;
7719;SDS011;3902;49.474;8.616;2022-09-01T09:20:56;3.10;;;2.90;;
7719;SDS011;3902;49.474;8.616;2022-09-01T09:23:38;2.90;;;2.70;;
7719;SDS011;3902;49.474;8.616;2022-09-01T09:26:07;2.83;;;2.60;;
7719;SDS011;3902;49.474;8.616;2022-09-01T09:28:33;3.17;;;2.93;;
7719;SDS011;3902;49.474;8.616;2022-09-01T09:33:50;3.70;;;3.10;;
7719;SDS011;3902;49.474;8.616;2022-09-01T09:36:20;3.50;;;3.20;;
7719;SDS011;3902;49.474;8.616;2022-09-01T09:39:01;2.93;;;2.73;;
7719;SDS011;3902;49.474;8.616;2022-09-01T09:41:34;2.80;;;2.60;;
7719;SDS011;3902;49.474;8.616;2022-09-01T09:46:43;3.10;;;2.80;;
7719;SDS011;3902;49.474;8.616;2022-09-01T09:49:27;3.23;;;2.93;;
7719;SDS011;3902;49.474;8.616;2022-09-01T09:54:36;3.60;;;3.00;;
7719;SDS011;3902;49.474;8.616;2022-09-01T09:57:23;2.63;;;2.43;;
7719;SDS011;3902;49.474;8.616;2022-09-01T09:59:56;2.60;;;2.40;;
7719;SDS011;3902;49.474;8.616;2022-09-01T10:02:46;2.47;;;2.27;;
7719;SDS011;3902;49.474;8.616;2022-09-01T10:07:52;3.73;;;2.50;;
7719;SDS011;3902;49.474;8.616;2022-09-01T10:10:30;2.70;;;2.50;;
7719;SDS011;3902;49.474;8.616;2022-09-01T10:13:16;2.70;;;2.50;;
7719;SDS011;3902;49.474;8.616;2022-09-01T10:15:51;3.60;;;2.63;;
7719;SDS011;3902;49.474;8.616;2022-09-01T10:18:21;3.30;;;3.00;;
7719;SDS011;3902;49.474;8.616;2022-09-01T10:21:23;2.70;;;2.50;;
7719;SDS011;3902;49.474;8.616;2022-09-01T10:24:03;3.13;;;2.30;;
7719;SDS011;3902;49.474;8.616;2022-09-01T10:26:38;2.67;;;2.47;;
7719;SDS011;3902;49.474;8.616;2022-09-01T10:31:37;2.73;;;2.53;;
7719;SDS011;3902;49.474;8.616;2022-09-01T10:34:05;2.80;;;2.60;;
7719;SDS011;3902;49.474;8.616;2022-09-01T10:36:35;2.70;;;2.50;;
7719;SDS011;3902;49.474;8.616;2022-09-01T10:39:02;2.80;;;2.60;;
7719;SDS011;3902;49.474;8.616;2022-09-01T10:46:55;2.50;;;2.30;;
7719;SDS011;3902;49.474;8.616;2022-09-01T10:51:51;3.03;;;2.83;;
7719;SDS011;3902;49.474;8.616;2022-09-01T10:57:02;2.50;;;2.30;;
7719;SDS011;3902;49.474;8.616;2022-09-01T10:59:46;2.90;;;2.70;;
7719;SDS011;3902;49.474;8.616;2022-09-01T11:02:12;3.30;;;3.00;;
7719;SDS011;3902;49.474;8.616;2022-09-01T11:12:56;2.27;;;2.07;;
7719;SDS011;3902;49.474;8.616;2022-09-01T11:18:13;1.90;;;1.80;;
7719;SDS011;3902;49.474;8.616;2022-09-01T11:20:41;2.57;;;2.37;;
7719;SDS011;3902;49.474;8.616;2022-09-01T11:25:42;2.67;;;2.47;;
7719;SDS011;3902;49.474;8.616;2022-09-01T11:30:55;3.13;;;2.43;;
7719;SDS011;3902;49.474;8.616;2022-09-01T11:36:03;2.63;;;2.43;;
7719;SDS011;3902;49.474;8.616;2022-09-01T11:38:33;2.53;;;2.33;;
7719;SDS011;3902;49.474;8.616;2022-09-01T11:41:18;2.20;;;2.00;;
7719;SDS011;3902;49.474;8.616;2022-09-01T11:44:12;2.40;;;2.20;;
7719;SDS011;3902;49.474;8.616;2022-09-01T11:46:42;2.50;;;2.30;;
7719;SDS011;3902;49.474;8.616;2022-09-01T11:49:29;2.40;;;2.20;;
7719;SDS011;3902;49.474;8.616;2022-09-01T11:52:00;2.20;;;2.00;;
7719;SDS011;3902;49.474;8.616;2022-09-01T11:54:28;3.13;;;2.00;;
7719;SDS011;3902;49.474;8.616;2022-09-01T11:57:15;2.40;;;2.20;;
7719;SDS011;3902;49.474;8.616;2022-09-01T11:59:54;2.67;;;2.47;;
7719;SDS011;3902;49.474;8.616;2022-09-01T12:02:29;2.70;;;2.50;;
7719;SDS011;3902;49.474;8.616;2022-09-01T12:04:58;2.88;;;2.67;;
7719;SDS011;3902;49.474;8.616;2022-09-01T12:07:26;2.70;;;2.50;;
7719;SDS011;3902;49.474;8.616;2022-09-01T12:10:01;2.85;;;2.28;;
7719;SDS011;3902;49.474;8.616;2022-09-01T12:12:35;2.22;;;2.13;;
7719;SDS011;3902;49.474;8.616;2022-09-01T12:15:05;2.40;;;2.20;;
7719;SDS011;3902;49.474;8.616;2022-09-01T12:17:47;2.55;;;2.35;;
7719;SDS011;3902;49.474;8.616;2022-09-01T12:20:30;2.83;;;2.50;;
7719;SDS011;3902;49.474;8.616;2022-09-01T12:22:59;2.87;;;2.67;;
7719;SDS011;3902;49.474;8.616;2022-09-01T12:25:28;2.73;;;2.40;;
7719;SDS011;3902;49.474;8.616;2022-09-01T12:27:56;2.47;;;2.30;;
7719;SDS011;3902;49.474;8.616;2022-09-01T12:30:24;2.90;;;2.70;;
7719;SDS011;3902;49.474;8.616;2022-09-01T12:32:51;2.50;;;2.30;;
7719;SDS011;3902;49.474;8.616;2022-09-01T12:35:21;2.83;;;2.63;;
7719;SDS011;3902;49.474;8.616;2022-09-01T12:37:48;2.58;;;2.25;;
7719;SDS011;3902;49.474;8.616;2022-09-01T12:43:35;2.90;;;2.70;;
7719;SDS011;3902;49.474;8.616;2022-09-01T12:46:00;2.75;;;2.55;;
7719;SDS011;3902;49.474;8.616;2022-09-01T12:48:32;2.58;;;2.38;;
7719;SDS011;3902;49.474;8.616;2022-09-01T12:53:52;4.28;;;2.63;;
7719;SDS011;3902;49.474;8.616;2022-09-01T12:59:06;2.58;;;2.38;;
7719;SDS011;3902;49.474;8.616;2022-09-01T13:01:34;2.60;;;2.40;;
7719;SDS011;3902;49.474;8.616;2022-09-01T13:06:45;2.50;;;2.30;;
7719;SDS011;3902;49.474;8.616;2022-09-01T13:09:10;2.20;;;2.10;;
7719;SDS011;3902;49.474;8.616;2022-09-01T13:11:36;2.63;;;2.33;;
7719;SDS011;3902;49.474;8.616;2022-09-01T13:14:02;2.47;;;2.28;;
7719;SDS011;3902;49.474;8.616;2022-09-01T13:16:28;2.60;;;2.40;;
7719;SDS011;3902;49.474;8.616;2022-09-01T13:18:54;2.42;;;2.22;;
7719;SDS011;3902;49.474;8.616;2022-09-01T13:21:19;2.95;;;2.75;;
7719;SDS011;3902;49.474;8.616;2022-09-01T13:23:45;2.58;;;2.38;;
7719;SDS011;3902;49.474;8.616;2022-09-01T13:26:12;2.70;;;2.50;;
7719;SDS011;3902;49.474;8.616;2022-09-01T13:28:37;3.78;;;2.88;;
7719;SDS011;3902;49.474;8.616;2022-09-01T13:31:03;2.50;;;2.30;;
7719;SDS011;3902;49.474;8.616;2022-09-01T13:33:30;2.70;;;2.50;;
7719;SDS011;3902;49.474;8.616;2022-09-01T13:35:57;2.80;;;2.10;;
7719;SDS011;3902;49.474;8.616;2022-09-01T13:38:23;2.50;;;2.30;;
7719;SDS011;3902;49.474;8.616;2022-09-01T13:40:49;2.67;;;2.30;;
7719;SDS011;3902;49.474;8.616;2022-09-01T13:43:17;2.75;;;2.55;;
7719;SDS011;3902;49.474;8.616;2022-09-01T13:45:44;2.78;;;2.58;;
7719;SDS011;3902;49.474;8.616;2022-09-01T13:48:11;3.08;;;2.78;;
7719;SDS011;3902;49.474;8.616;2022-09-01T13:50:37;4.13;;;2.58;;
7719;SDS011;3902;49.474;8.616;2022-09-01T13:53:03;2.42;;;2.22;;
7719;SDS011;3902;49.474;8.616;2022-09-01T13:55:30;2.42;;;2.22;;
7719;SDS011;3902;49.474;8.616;2022-09-01T13:57:57;2.47;;;2.28;;
7719;SDS011;3902;49.474;8.616;2022-09-01T14:00:25;2.10;;;2.00;;
7719;SDS011;3902;49.474;8.616;2022-09-01T14:02:54;2.00;;;1.90;;
7719;SDS011;3902;49.474;8.616;2022-09-01T14:05:23;2.60;;;2.40;;
7719;SDS011;3902;49.474;8.616;2022-09-01T14:07:51;2.00;;;1.90;;
7719;SDS011;3902;49.474;8.616;2022-09-01T14:10:17;6.78;;;2.15;;
7719;SDS011;3902;49.474;8.616;2022-09-01T14:12:44;2.20;;;2.00;;
7719;SDS011;3902;49.474;8.616;2022-09-01T14:15:11;2.40;;;2.20;;
7719;SDS011;3902;49.474;8.616;2022-09-01T14:17:38;2.93;;;2.10;;
7719;SDS011;3902;49.474;8.616;2022-09-01T14:20:04;2.28;;;2.17;;
7719;SDS011;3902;49.474;8.616;2022-09-01T14:22:32;2.65;;;2.45;;
7719;SDS011;3902;49.474;8.616;2022-09-01T14:24:59;3.08;;;2.30;;
7719;SDS011;3902;49.474;8.616;2022-09-01T14:27:25;3.35;;;2.60;;
7719;SDS011;3902;49.474;8.616;2022-09-01T14:29:51;2.35;;;2.25;;
7719;SDS011;3902;49.474;8.616;2022-09-01T14:32:19;2.50;;;2.30;;
7719;SDS011;3902;49.474;8.616;2022-09-01T14:34:48;2.10;;;2.00;;
7719;SDS011;3902;49.474;8.616;2022-09-01T14:37:14;2.67;;;2.47;;
7719;SDS011;3902;49.474;8.616;2022-09-01T14:39:40;2.47;;;2.28;;
7719;SDS011;3902;49.474;8.616;2022-09-01T14:42:05;2.70;;;2.50;;
7719;SDS011;3902;49.474;8.616;2022-09-01T14:44:34;2.50;;;2.30;;
7719;SDS011;3902;49.474;8.616;2022-09-01T14:47:02;2.38;;;2.17;;
7719;SDS011;3902;49.474;8.616;2022-09-01T14:49:30;3.50;;;2.45;;
7719;SDS011;3902;49.474;8.616;2022-09-01T14:52:00;2.67;;;2.47;;
7719;SDS011;3902;49.474;8.616;2022-09-01T14:54:28;2.67;;;2.03;;
7719;SDS011;3902;49.474;8.616;2022-09-01T14:56:54;2.15;;;2.05;;
7719;SDS011;3902;49.474;8.616;2022-09-01T14:59:20;3.08;;;2.35;;
7719;SDS011;3902;49.474;8.616;2022-09-01T15:01:45;2.47;;;2.28;;
7719;SDS011;3902;49.474;8.616;2022-09-01T15:04:11;2.05;;;1.85;;
7719;SDS011;3902;49.474;8.616;2022-09-01T15:06:36;2.25;;;1.90;;
7719;SDS011;3902;49.474;8.616;2022-09-01T15:09:02;2.22;;;2.03;;
7719;SDS011;3902;49.474;8.616;2022-09-01T15:11:27;3.03;;;2.80;;
7719;SDS011;3902;49.474;8.616;2022-09-01T15:13:53;2.47;;;2.27;;
7719;SDS011;3902;49.474;8.616;2022-09-01T15:16:20;2.30;;;2.20;;
7719;SDS011;3902;49.474;8.616;2022-09-01T15:18:48;2.60;;;2.40;;
7719;SDS011;3902;49.474;8.616;2022-09-01T15:21:18;2.50;;;2.30;;
7719;SDS011;3902;49.474;8.616;2022-09-01T15:23:52;2.10;;;2.00;;
7719;SDS011;3902;49.474;8.616;2022-09-01T15:26:18;2.50;;;2.30;;
7719;SDS011;3902;49.474;8.616;2022-09-01T15:28:44;2.50;;;2.20;;
7719;SDS011;3902;49.474;8.616;2022-09-01T15:31:11;2.13;;;2.03;;
7719;SDS011;3902;49.474;8.616;2022-09-01T15:33:38;2.50;;;2.30;;
7719;SDS011;3902;49.474;8.616;2022-09-01T15:36:04;2.93;;;2.00;;
7719;SDS011;3902;49.474;8.616;2022-09-01T15:38:30;2.17;;;2.07;;
7719;SDS011;3902;49.474;8.616;2022-09-01T15:40:55;2.60;;;2.40;;
7719;SDS011;3902;49.474;8.616;2022-09-01T15:43:21;2.80;;;2.60;;
7719;SDS011;3902;49.474;8.616;2022-09-01T15:45:47;2.20;;;2.10;;
7719;SDS011;3902;49.474;8.616;2022-09-01T15:48:12;2.40;;;2.17;;
7719;SDS011;3902;49.474;8.616;2022-09-01T15:50:38;2.00;;;1.90;;
7719;SDS011;3902;49.474;8.616;2022-09-01T15:53:04;2.67;;;2.47;;
7719;SDS011;3902;49.474;8.616;2022-09-01T15:55:48;2.40;;;2.20;;
7719;SDS011;3902;49.474;8.616;2022-09-01T15:58:14;2.60;;;2.40;;
7719;SDS011;3902;49.474;8.616;2022-09-01T16:00:42;2.57;;;2.37;;
7719;SDS011;3902;49.474;8.616;2022-09-01T16:03:08;2.10;;;2.00;;
7719;SDS011;3902;49.474;8.616;2022-09-01T16:05:34;2.40;;;2.20;;
7719;SDS011;3902;49.474;8.616;2022-09-01T16:08:02;2.63;;;2.43;;
7719;SDS011;3902;49.474;8.616;2022-09-01T16:10:30;2.07;;;1.93;;
7719;SDS011;3902;49.474;8.616;2022-09-01T16:12:56;2.00;;;1.90;;
7719;SDS011;3902;49.474;8.616;2022-09-01T16:15:22;2.23;;;2.03;;
7719;SDS011;3902;49.474;8.616;2022-09-01T16:18:05;2.23;;;2.00;;
7719;SDS011;3902;49.474;8.616;2022-09-01T16:23:31;2.50;;;2.30;;
7719;SDS011;3902;49.474;8.616;2022-09-01T16:26:05;2.23;;;2.03;;
7719;SDS011;3902;49.474;8.616;2022-09-01T16:28:33;2.70;;;2.50;;
7719;SDS011;3902;49.474;8.616;2022-09-01T16:31:14;2.40;;;2.20;;
7719;SDS011;3902;49.474;8.616;2022-09-01T16:33:48;2.40;;;2.20;;
7719;SDS011;3902;49.474;8.616;2022-09-01T16:41:49;2.73;;;2.40;;